Time;durP1;ratioP1;P1;durP2;ratioP2;P2;SDS_P1;SDS_P2;PMS_P1;PMS_P2;Temp;Humidity;BMP_temperature;BMP_pressure;BME280_temperature;BME280_humidity;BME280_pressure;Samples;Min_cycle;Max_cycle;Signal;HPM_P1;HPM_P2
2021/10/21 00:01:56;;;;;;;;;1.75;0.50;;;;;15.26;63.84;99262.31;4997846;28;45769;-58
2021/10/21 00:04:21;;;;;;;;;4.00;1.00;;;;;15.13;64.75;99271.00;4999285;28;45275;-58
2021/10/21 00:06:46;;;;;;;;;1.00;1.00;;;;;15.30;64.50;99269.00;4999493;28;45322;-58
2021/10/21 00:09:12;;;;;;;;;0.75;0.25;;;;;15.25;64.06;99271.94;4999105;28;45333;-58
2021/10/21 00:11:39;;;;;;;;;5.25;1.00;;;;;15.33;64.47;99280.06;4998984;28;45278;-58
2021/10/21 00:14:04;;;;;;;;;3.25;1.25;;;;;15.37;64.47;99271.06;4999170;28;45685;-59
2021/10/21 00:16:30;;;;;;;;;4.00;3.00;;;;;15.32;63.88;99274.94;4999211;28;45317;-57
2021/10/21 00:18:55;;;;;;;;;6.50;1.75;;;;;15.24;63.94;99274.66;4997847;28;45446;-57
2021/10/21 00:21:21;;;;;;;;;0.75;0.75;;;;;15.26;63.66;99281.47;4998999;28;45371;-57
2021/10/21 00:23:47;;;;;;;;;2.75;0.75;;;;;15.28;63.90;99333.69;4998492;28;45210;-58
2021/10/21 00:26:12;;;;;;;;;6.00;1.75;;;;;15.30;63.12;99301.22;4999339;28;45410;-58
2021/10/21 00:28:38;;;;;;;;;2.00;0.75;;;;;15.29;63.65;99290.88;4999992;28;45234;-58
2021/10/21 00:31:04;;;;;;;;;0.25;0.25;;;;;15.48;63.13;99281.63;5002383;28;45275;-58
2021/10/21 00:33:30;;;;;;;;;3.50;1.00;;;;;15.53;63.35;99303.06;5002351;28;45243;-58
2021/10/21 00:35:55;;;;;;;;;3.00;2.00;;;;;15.50;62.64;99287.56;5006901;28;45459;-58
2021/10/21 00:38:21;;;;;;;;;5.00;2.00;;;;;15.39;63.36;99287.47;5007809;28;45444;-58
2021/10/21 00:40:46;;;;;;;;;2.25;0.75;;;;;15.33;62.90;99295.78;5002248;28;45412;-58
2021/10/21 00:43:11;;;;;;;;;0.50;0.00;;;;;15.36;63.20;99292.94;5002072;28;45393;-58
2021/10/21 00:45:37;;;;;;;;;1.00;0.00;;;;;15.41;62.91;99276.91;5002424;28;45411;-58
2021/10/21 00:48:03;;;;;;;;;8.00;1.50;;;;;15.19;63.90;99311.59;4999484;28;45455;-59
2021/10/21 00:50:29;;;;;;;;;3.50;0.00;;;;;15.24;64.17;99311.31;5001911;28;46291;-59
2021/10/21 00:52:56;;;;;;;;;2.25;0.00;;;;;15.20;63.53;99284.47;5001747;28;45246;-58
2021/10/21 00:55:21;;;;;;;;;1.25;1.00;;;;;15.27;63.89;99293.59;5002174;28;45231;-58
2021/10/21 00:57:47;;;;;;;;;2.50;1.00;;;;;15.34;63.72;99305.31;5001739;28;45516;-58
2021/10/21 01:00:13;;;;;;;;;2.25;0.00;;;;;15.22;64.10;99295.72;5001912;28;45386;-58
2021/10/21 01:02:39;;;;;;;;;3.00;0.75;;;;;15.21;64.33;99328.84;5000546;28;45235;-58
2021/10/21 01:05:06;;;;;;;;;3.50;0.50;;;;;15.13;64.63;99335.56;5001671;28;45262;-58
2021/10/21 01:07:32;;;;;;;;;3.50;1.00;;;;;15.08;66.02;99348.97;5001589;28;45523;-58
2021/10/21 01:09:58;;;;;;;;;0.00;0.00;;;;;14.84;67.97;99354.09;4981538;28;47275;-58
2021/10/21 01:12:23;;;;;;;;;1.25;0.75;;;;;14.75;69.35;99367.78;4995391;28;45368;-58
2021/10/21 01:14:49;;;;;;;;;0.75;0.00;;;;;14.56;69.19;99364.69;5001715;28;45338;-58
2021/10/21 01:17:17;;;;;;;;;0.00;0.00;;;;;14.49;67.82;99339.91;5001651;28;45384;-58
2021/10/21 01:19:43;;;;;;;;;0.00;0.00;;;;;14.46;67.51;99363.63;5001677;28;47143;-58
2021/10/21 01:22:08;;;;;;;;;2.25;0.50;;;;;14.51;67.82;99358.94;5001145;28;45456;-58
2021/10/21 01:24:34;;;;;;;;;0.75;0.00;;;;;14.62;67.31;99377.38;5001248;28;45515;-60
2021/10/21 01:27:00;;;;;;;;;1.50;0.00;;;;;14.69;66.81;99389.09;5001523;28;45380;-59
2021/10/21 01:29:26;;;;;;;;;0.75;0.00;;;;;14.65;66.19;99405.94;5001520;28;45941;-60
2021/10/21 01:31:54;;;;;;;;;1.50;0.25;;;;;14.68;65.76;99410.13;5001424;28;45625;-59
2021/10/21 01:34:20;;;;;;;;;0.00;0.00;;;;;14.68;65.38;99421.44;5001768;28;45346;-59
2021/10/21 01:36:53;;;;;;;;;0.25;0.00;;;;;14.64;65.27;99429.56;5000913;28;45431;-59
2021/10/21 01:39:20;;;;;;;;;0.50;0.00;;;;;14.63;65.25;99428.75;5001257;28;45310;-59
2021/10/21 01:41:45;;;;;;;;;2.00;0.00;;;;;14.56;64.67;99398.69;5000491;28;45208;-59
2021/10/21 01:44:11;;;;;;;;;0.00;0.00;;;;;14.62;64.64;99419.22;5001432;28;45167;-59
2021/10/21 01:46:38;;;;;;;;;1.50;0.75;;;;;14.50;64.88;99480.97;4983275;28;45291;-59
2021/10/21 01:49:03;;;;;;;;;1.00;1.00;;;;;14.48;65.00;99446.25;5001175;28;46176;-59
2021/10/21 01:51:28;;;;;;;;;3.00;1.00;;;;;14.39;65.42;99485.16;4998314;28;45416;-59
2021/10/21 01:53:54;;;;;;;;;1.75;1.00;;;;;14.36;65.87;99444.38;5001083;28;45250;-59
2021/10/21 01:56:19;;;;;;;;;2.00;0.75;;;;;14.29;65.47;99480.53;5001005;28;45163;-59
2021/10/21 01:58:44;;;;;;;;;0.00;0.00;;;;;14.30;66.04;99487.41;5000966;28;45356;-59
2021/10/21 02:01:10;;;;;;;;;2.25;0.00;;;;;14.27;66.18;99494.63;4999690;28;45410;-59
2021/10/21 02:03:35;;;;;;;;;0.00;0.00;;;;;14.21;65.94;99487.97;5000721;28;45401;-59
2021/10/21 02:06:01;;;;;;;;;0.75;0.00;;;;;14.23;65.79;99512.28;5000704;28;45278;-60
2021/10/21 02:08:26;;;;;;;;;1.00;0.00;;;;;14.22;65.44;99510.59;4999609;28;46181;-59
2021/10/21 02:10:52;;;;;;;;;1.25;0.00;;;;;14.12;64.86;99499.00;5000692;28;45460;-60
2021/10/21 02:13:17;;;;;;;;;2.00;0.00;;;;;14.13;64.35;99495.47;5000737;28;45918;-60
2021/10/21 02:15:42;;;;;;;;;0.50;0.00;;;;;14.08;64.62;99520.22;5000667;28;45408;-60
2021/10/21 02:18:08;;;;;;;;;0.50;0.00;;;;;14.10;64.39;99521.78;5000251;28;45349;-59
2021/10/21 02:20:33;;;;;;;;;0.00;0.00;;;;;14.02;64.29;99560.63;5000472;28;45448;-59
2021/10/21 02:22:59;;;;;;;;;1.00;0.00;;;;;13.97;64.33;99567.88;5000128;28;45323;-59
2021/10/21 02:25:25;;;;;;;;;2.50;0.00;;;;;13.90;63.99;99569.19;4999920;28;45532;-59
2021/10/21 02:27:51;;;;;;;;;0.00;0.00;;;;;13.87;64.66;99598.94;5000554;28;45318;-59
2021/10/21 02:30:18;;;;;;;;;0.00;0.00;;;;;13.80;64.74;99613.25;5000393;28;45241;-59
2021/10/21 02:32:44;;;;;;;;;0.00;0.00;;;;;13.80;64.60;99618.47;5000791;28;45278;-59
2021/10/21 02:35:12;;;;;;;;;2.00;0.00;;;;;13.74;64.56;99644.97;5000056;28;45266;-59
2021/10/21 02:37:38;;;;;;;;;0.00;0.00;;;;;13.80;64.83;99636.75;5000301;28;46217;-58
2021/10/21 02:40:06;;;;;;;;;0.00;0.00;;;;;13.79;64.81;99647.28;5000181;28;45387;-59
2021/10/21 02:42:32;;;;;;;;;0.75;0.00;;;;;13.91;64.74;99612.63;5000602;28;45487;-58
2021/10/21 02:44:57;;;;;;;;;0.00;0.00;;;;;13.77;65.10;99675.28;4999920;28;45271;-59
2021/10/21 02:47:23;;;;;;;;;0.00;0.00;;;;;13.77;64.87;99680.50;5000419;28;45896;-59
2021/10/21 02:49:48;;;;;;;;;0.00;0.00;;;;;13.72;65.41;99666.88;4999824;28;45315;-58
2021/10/21 02:52:13;;;;;;;;;0.00;0.00;;;;;13.73;65.76;99694.66;4998629;28;45388;-59
2021/10/21 02:54:39;;;;;;;;;0.50;0.00;;;;;13.78;65.57;99693.47;4998926;28;45184;-59
2021/10/21 02:57:04;;;;;;;;;1.00;1.00;;;;;13.80;65.32;99722.94;5000010;28;45964;-58
2021/10/21 02:59:30;;;;;;;;;0.00;0.00;;;;;13.87;65.11;99718.22;4999891;28;45167;-60
2021/10/21 03:01:55;;;;;;;;;0.00;0.00;;;;;13.91;65.18;99753.69;4998760;28;45291;-59
2021/10/21 03:04:20;;;;;;;;;0.00;0.00;;;;;13.86;65.66;99789.66;4999756;28;45440;-58
2021/10/21 03:06:46;;;;;;;;;0.00;0.00;;;;;13.78;66.41;99791.84;4999771;28;45503;-59
2021/10/21 03:09:12;;;;;;;;;2.00;1.00;;;;;13.68;66.71;99800.22;4999866;28;45384;-59
2021/10/21 03:11:37;;;;;;;;;0.00;0.00;;;;;13.76;66.83;99804.16;4999235;28;45543;-60
2021/10/21 03:14:03;;;;;;;;;1.75;0.00;;;;;13.67;67.19;99829.84;4998639;28;45488;-59
2021/10/21 03:16:34;;;;;;;;;2.75;0.50;;;;;13.67;67.49;99800.28;4997244;28;46167;-59
2021/10/21 03:19:05;;;;;;;;;1.00;0.00;;;;;13.67;67.62;99882.06;4997165;28;45898;-59
2021/10/21 03:21:31;;;;;;;;;1.50;0.50;;;;;13.52;68.52;99916.81;4997499;28;45642;-60
2021/10/21 03:23:57;;;;;;;;;0.75;0.75;;;;;13.52;68.53;99919.44;4996523;28;45471;-59
2021/10/21 03:26:23;;;;;;;;;0.25;0.25;;;;;13.49;69.66;99922.22;4997563;28;45436;-59
2021/10/21 03:28:49;;;;;;;;;3.00;0.00;;;;;13.44;69.23;99960.75;4997410;28;45573;-59
2021/10/21 03:31:14;;;;;;;;;2.00;0.75;;;;;13.30;69.89;100010.19;4998227;28;45495;-59
2021/10/21 03:33:40;;;;;;;;;1.00;0.25;;;;;13.17;69.84;99996.03;4998078;28;45346;-59
2021/10/21 03:36:05;;;;;;;;;0.00;0.00;;;;;13.03;71.38;100025.44;4999194;28;45410;-60
2021/10/21 03:38:31;;;;;;;;;0.00;0.00;;;;;12.84;72.15;100048.94;4998836;28;45290;-59
2021/10/21 03:40:57;;;;;;;;;0.50;0.00;;;;;12.71;73.87;100069.53;5000006;28;45310;-60
2021/10/21 03:43:23;;;;;;;;;0.00;0.00;;;;;12.66;74.45;100074.13;4999143;28;45334;-59
2021/10/21 03:45:49;;;;;;;;;0.00;0.00;;;;;12.58;74.81;100098.84;4999200;28;46240;-59
2021/10/21 03:48:14;;;;;;;;;1.25;0.00;;;;;12.52;76.60;100114.75;4998975;28;45523;-59
2021/10/21 03:50:39;;;;;;;;;0.00;0.00;;;;;12.41;76.47;100131.75;4999072;28;45488;-58
2021/10/21 03:53:09;;;;;;;;;1.00;0.75;;;;;12.35;76.88;100145.03;4999138;28;45406;-59
2021/10/21 03:55:35;;;;;;;;;1.00;0.00;;;;;12.27;76.32;100175.78;4996569;28;46051;-58
2021/10/21 03:58:01;;;;;;;;;4.00;0.00;;;;;12.17;76.67;100171.88;4998900;28;45409;-58
2021/10/21 04:00:26;;;;;;;;;4.00;1.00;;;;;12.17;75.51;100188.34;4999101;28;45525;-59
2021/10/21 04:02:51;;;;;;;;;0.00;0.00;;;;;12.10;74.56;100170.47;4997387;28;45367;-59
2021/10/21 04:05:17;;;;;;;;;1.00;0.00;;;;;12.08;74.89;100204.38;5002266;28;45952;-57
2021/10/21 04:07:42;;;;;;;;;0.00;0.00;;;;;12.05;74.29;100212.34;5002456;28;45375;-58
2021/10/21 04:10:08;;;;;;;;;2.50;0.50;;;;;12.03;73.33;100228.94;5002444;28;45340;-59
2021/10/21 04:12:33;;;;;;;;;0.00;0.00;;;;;12.00;73.60;100245.50;5002429;28;45563;-59
2021/10/21 04:14:58;;;;;;;;;1.25;1.25;;;;;12.05;73.30;100260.97;5002321;28;45958;-60
2021/10/21 04:17:24;;;;;;;;;1.75;0.00;;;;;12.08;72.79;100258.22;5002289;28;45505;-60
2021/10/21 04:19:49;;;;;;;;;2.75;1.00;;;;;12.12;72.62;100263.25;5001909;28;45294;-60
2021/10/21 04:22:15;;;;;;;;;3.00;0.00;;;;;12.19;72.64;100269.88;5001950;28;45596;-60
2021/10/21 04:24:40;;;;;;;;;0.50;0.00;;;;;12.23;72.73;100275.84;5001909;28;45354;-62
2021/10/21 04:27:06;;;;;;;;;1.00;0.00;;;;;12.28;72.83;100278.25;5002141;28;45246;-61
2021/10/21 04:29:31;;;;;;;;;0.75;0.75;;;;;12.29;72.82;100279.94;5002302;28;45278;-61
2021/10/21 04:31:56;;;;;;;;;1.75;1.00;;;;;12.29;72.56;100285.16;5001974;28;45168;-62
2021/10/21 04:34:22;;;;;;;;;1.25;0.00;;;;;12.23;71.82;100298.44;5002078;28;45346;-65
2021/10/21 04:36:47;;;;;;;;;0.00;0.00;;;;;12.28;71.76;100317.31;5001813;28;45255;-60
2021/10/21 04:39:12;;;;;;;;;1.00;0.00;;;;;12.31;71.70;100327.63;5002134;28;45227;-61
2021/10/21 04:41:38;;;;;;;;;0.00;0.00;;;;;12.28;71.55;100330.34;5001898;28;45220;-58
2021/10/21 04:44:04;;;;;;;;;0.75;0.75;;;;;12.34;71.54;100338.75;5001997;28;46140;-58
2021/10/21 04:46:29;;;;;;;;;3.00;0.00;;;;;12.34;71.51;100350.94;5001891;28;45476;-60
2021/10/21 04:48:55;;;;;;;;;1.00;1.00;;;;;12.30;71.64;100357.19;4986538;28;45283;-60
2021/10/21 04:51:20;;;;;;;;;1.25;1.00;;;;;12.29;71.63;100377.19;5001680;28;46560;-60
2021/10/21 04:53:46;;;;;;;;;1.50;1.00;;;;;12.33;71.91;100376.16;5001723;28;45381;-60
2021/10/21 04:56:12;;;;;;;;;3.00;0.00;;;;;12.37;72.07;100374.25;5001702;28;45334;-60
2021/10/21 04:58:38;;;;;;;;;0.00;0.00;;;;;12.39;72.02;100377.66;4999248;28;45282;-60
2021/10/21 05:01:04;;;;;;;;;1.75;0.50;;;;;12.39;72.13;100382.88;5001065;28;45612;-58
2021/10/21 05:03:29;;;;;;;;;0.00;0.00;;;;;12.40;72.01;100400.19;5000304;28;46731;-58
2021/10/21 05:05:54;;;;;;;;;1.25;0.25;;;;;12.44;72.28;100401.78;5000408;28;45287;-58
2021/10/21 05:08:20;;;;;;;;;3.75;2.50;;;;;12.36;72.47;100415.09;5001014;28;45330;-59
2021/10/21 05:10:45;;;;;;;;;6.25;2.00;;;;;12.34;72.40;100422.16;4999798;28;45481;-60
2021/10/21 05:13:12;;;;;;;;;3.00;1.00;;;;;12.30;72.25;100428.38;5001350;28;46201;-60
2021/10/21 05:15:38;;;;;;;;;2.00;1.00;;;;;12.31;72.14;100440.50;4996781;28;45635;-60
2021/10/21 05:18:04;;;;;;;;;2.00;1.00;;;;;12.37;72.06;100444.63;4998469;28;45957;-60
2021/10/21 05:20:29;;;;;;;;;4.00;1.25;;;;;12.43;71.65;100452.22;5000438;28;45290;-60
2021/10/21 05:22:55;;;;;;;;;2.00;1.00;;;;;12.41;71.27;100457.50;4999149;28;45497;-60
2021/10/21 05:25:20;;;;;;;;;1.75;1.75;;;;;12.41;70.91;100467.91;5000062;28;45281;-60
2021/10/21 05:27:45;;;;;;;;;1.75;0.75;;;;;12.49;70.81;100465.84;5000490;28;45488;-60
2021/10/21 05:30:11;;;;;;;;;2.25;0.00;;;;;12.53;70.68;100470.94;5000703;28;45375;-59
2021/10/21 05:32:37;;;;;;;;;2.00;0.75;;;;;12.57;70.59;100477.72;5000717;28;46244;-60
2021/10/21 05:35:03;;;;;;;;;1.25;1.25;;;;;12.59;70.09;100475.88;4983037;28;45396;-59
2021/10/21 05:37:28;;;;;;;;;1.00;1.00;;;;;12.62;69.78;100483.63;5001256;28;45334;-59
2021/10/21 05:39:57;;;;;;;;;2.00;2.00;;;;;12.62;69.77;100486.22;5000812;28;45327;-60
2021/10/21 05:42:23;;;;;;;;;1.00;1.00;;;;;12.61;69.68;100500.97;5000680;28;46115;-59
2021/10/21 05:44:49;;;;;;;;;1.00;0.00;;;;;12.65;69.62;100501.75;5000927;28;45196;-59
2021/10/21 05:47:15;;;;;;;;;3.00;1.25;;;;;12.69;69.59;100506.75;5001169;28;45398;-60
2021/10/21 05:49:40;;;;;;;;;3.50;1.00;;;;;12.76;69.49;100503.00;5000898;28;45417;-59
2021/10/21 05:52:06;;;;;;;;;1.00;1.00;;;;;12.84;69.53;100507.91;5000831;28;45325;-59
2021/10/21 05:54:31;;;;;;;;;3.75;1.00;;;;;12.93;69.37;100514.50;4996066;28;45462;-59
2021/10/21 05:56:57;;;;;;;;;2.00;1.25;;;;;13.01;69.30;100521.13;5000799;28;45453;-59
2021/10/21 05:59:22;;;;;;;;;2.00;2.00;;;;;13.04;68.94;100521.00;5000588;28;45425;-59
2021/10/21 06:01:47;;;;;;;;;2.50;1.00;;;;;13.04;68.90;100525.38;4996461;28;46093;-59
2021/10/21 06:04:13;;;;;;;;;1.50;1.50;;;;;12.99;69.16;100522.91;5000800;28;45298;-65
2021/10/21 06:06:39;;;;;;;;;1.50;1.00;;;;;12.93;69.13;100524.94;5000502;28;45245;-58
2021/10/21 06:09:04;;;;;;;;;3.00;2.00;;;;;12.88;69.60;100535.56;5000459;28;45385;-60
2021/10/21 06:11:36;;;;;;;;;2.00;2.00;;;;;12.87;69.80;100528.66;5000266;28;46044;-58
2021/10/21 06:14:02;;;;;;;;;4.00;3.00;;;;;12.84;70.12;100535.75;5000504;28;45247;-59
2021/10/21 06:16:29;;;;;;;;;10.25;5.00;;;;;12.85;70.17;100543.50;4999162;28;45350;-59
2021/10/21 06:18:55;;;;;;;;;11.25;6.00;;;;;12.88;70.34;100548.59;5000258;28;45379;-59
2021/10/21 06:21:23;;;;;;;;;5.25;5.00;;;;;12.89;70.41;100547.69;5000058;28;45348;-61
2021/10/21 06:23:49;;;;;;;;;6.75;6.75;;;;;12.89;70.42;100552.06;4999691;28;45673;-62
2021/10/21 06:26:17;;;;;;;;;6.25;3.50;;;;;12.85;71.02;100548.72;4999727;28;45310;-62
2021/10/21 06:28:43;;;;;;;;;3.50;3.00;;;;;12.78;71.01;100555.06;4999995;28;45808;-62
2021/10/21 06:31:11;;;;;;;;;5.50;4.50;;;;;12.78;71.74;100562.91;5000035;28;46220;-62
2021/10/21 06:33:36;;;;;;;;;7.75;3.50;;;;;12.78;71.90;100561.13;4999696;28;46010;-62
2021/10/21 06:36:01;;;;;;;;;7.25;5.00;;;;;12.81;72.00;100557.56;5004992;28;45492;-62
2021/10/21 06:38:28;;;;;;;;;3.50;3.00;;;;;12.80;72.15;100569.75;5003132;28;45302;-62
2021/10/21 06:40:53;;;;;;;;;2.00;2.00;;;;;12.74;72.99;100571.75;4999607;28;45455;-62
2021/10/21 06:43:18;;;;;;;;;3.00;1.00;;;;;12.76;72.59;100556.91;4998631;28;45534;-62
2021/10/21 06:45:44;;;;;;;;;3.50;1.25;;;;;12.77;73.22;100569.03;4999309;28;45323;-61
2021/10/21 06:48:09;;;;;;;;;10.00;6.00;;;;;12.66;74.01;100574.69;4999792;28;45267;-62
2021/10/21 06:50:34;;;;;;;;;15.25;8.50;;;;;12.69;74.20;100586.75;4999539;28;45265;-62
2021/10/21 06:53:00;;;;;;;;;7.50;4.00;;;;;12.74;73.48;100588.25;4999554;28;45228;-63
2021/10/21 06:55:25;;;;;;;;;9.25;4.00;;;;;12.76;73.62;100588.19;5000041;28;45176;-62
2021/10/21 06:57:52;;;;;;;;;4.75;3.00;;;;;12.81;73.46;100594.06;4999523;28;45572;-61
2021/10/21 07:00:19;;;;;;;;;6.00;3.75;;;;;12.82;73.79;100592.34;4999671;28;46183;-62
2021/10/21 07:02:44;;;;;;;;;6.00;3.75;;;;;12.83;73.58;100607.94;4995583;28;45392;-61
2021/10/21 07:05:12;;;;;;;;;4.25;2.00;;;;;12.87;73.58;100619.94;4999546;28;45317;-61
2021/10/21 07:07:37;;;;;;;;;3.75;3.00;;;;;12.95;73.30;100607.44;4999461;28;45480;-61
2021/10/21 07:10:06;;;;;;;;;5.00;3.00;;;;;12.99;73.20;100616.81;4999289;28;46035;-59
2021/10/21 07:12:41;;;;;;;;;2.00;0.00;;;;;12.90;73.62;100613.75;4999455;28;45352;-61
2021/10/21 07:15:09;;;;;;;;;4.75;2.75;;;;;12.89;73.26;100628.53;4999751;28;45327;-61
2021/10/21 07:17:35;;;;;;;;;6.00;4.75;;;;;12.91;73.37;100634.53;4999060;28;45345;-61
2021/10/21 07:20:02;;;;;;;;;13.00;5.75;;;;;12.96;73.47;100635.22;4999308;28;46343;-63
2021/10/21 07:22:27;;;;;;;;;3.00;1.75;;;;;12.99;73.37;100636.84;4997764;28;45348;-62
2021/10/21 07:24:53;;;;;;;;;3.50;3.50;;;;;12.97;72.90;100633.44;4998530;28;45272;-62
2021/10/21 07:27:18;;;;;;;;;8.00;4.75;;;;;13.04;72.90;100645.38;4998659;28;46062;-62
2021/10/21 07:29:45;;;;;;;;;5.00;4.00;;;;;13.07;72.62;100651.31;4999352;28;45488;-62
2021/10/21 07:32:10;;;;;;;;;4.25;2.00;;;;;13.16;72.69;100655.31;4999157;28;45295;-62
2021/10/21 07:34:36;;;;;;;;;7.00;4.25;;;;;13.23;72.23;100651.59;4999647;28;45444;-63
2021/10/21 07:37:02;;;;;;;;;4.75;3.50;;;;;13.26;71.63;100666.28;5009179;28;45662;-62
2021/10/21 07:39:27;;;;;;;;;12.50;6.50;;;;;13.32;71.57;100664.25;5001108;28;46128;-62
2021/10/21 07:41:54;;;;;;;;;5.00;2.00;;;;;13.39;71.19;100664.84;5002559;28;45313;-63
2021/10/21 07:44:20;;;;;;;;;4.00;3.00;;;;;13.43;71.32;100683.88;5002984;28;45363;-62
2021/10/21 07:46:46;;;;;;;;;4.75;4.75;;;;;13.36;71.12;100689.31;5002511;28;45344;-62
2021/10/21 07:49:13;;;;;;;;;9.25;4.25;;;;;13.44;71.36;100673.38;4985197;28;46152;-61
2021/10/21 07:51:40;;;;;;;;;8.25;4.00;;;;;13.55;71.23;100693.81;5002302;28;45521;-62
2021/10/21 07:54:06;;;;;;;;;3.75;3.75;;;;;13.55;70.76;100691.19;5002889;28;45318;-64
2021/10/21 07:56:31;;;;;;;;;2.75;2.50;;;;;13.55;70.90;100707.72;5002574;28;45306;-62
2021/10/21 07:58:57;;;;;;;;;9.75;4.25;;;;;13.54;71.03;100697.34;5002489;28;45330;-63
2021/10/21 08:01:22;;;;;;;;;6.50;2.75;;;;;13.51;71.03;100698.31;5000829;28;45446;-62
2021/10/21 08:03:48;;;;;;;;;6.25;4.00;;;;;13.57;70.80;100703.28;5002551;28;45373;-62
2021/10/21 08:06:14;;;;;;;;;8.25;4.00;;;;;13.63;70.86;100703.06;4998789;28;45557;-62
2021/10/21 08:08:39;;;;;;;;;9.75;2.25;;;;;13.74;70.18;100709.59;5002372;28;46189;-62
2021/10/21 08:11:05;;;;;;;;;7.00;3.00;;;;;13.73;70.26;100706.13;4984731;28;45353;-61
2021/10/21 08:13:31;;;;;;;;;8.25;6.75;;;;;13.72;70.14;100717.47;5002850;28;45381;-62
2021/10/21 08:15:57;;;;;;;;;8.25;4.25;;;;;13.74;70.08;100714.81;5002114;28;45156;-61
2021/10/21 08:18:22;;;;;;;;;4.00;2.50;;;;;13.82;69.90;100710.97;5002584;28;46476;-63
2021/10/21 08:20:49;;;;;;;;;6.75;4.50;;;;;13.73;69.61;100719.19;5001782;28;45390;-62
2021/10/21 08:23:14;;;;;;;;;7.50;5.00;;;;;13.82;69.72;100723.19;5001941;28;45171;-63
2021/10/21 08:25:40;;;;;;;;;10.00;4.00;;;;;13.90;69.45;100727.19;5001762;28;45187;-62
2021/10/21 08:28:06;;;;;;;;;5.00;5.00;;;;;13.97;69.09;100733.84;5001967;28;46929;-62
2021/10/21 08:30:35;;;;;;;;;7.75;5.00;;;;;14.03;69.12;100737.97;5001632;28;45366;-62
2021/10/21 08:33:03;;;;;;;;;9.00;5.00;;;;;14.12;68.91;100727.13;5002427;28;45256;-63
2021/10/21 08:35:29;;;;;;;;;2.75;2.75;;;;;14.11;68.65;100727.19;5001799;28;45426;-62
2021/10/21 08:37:55;;;;;;;;;6.50;2.25;;;;;14.04;68.83;100734.44;5001877;28;46210;-62
2021/10/21 08:40:21;;;;;;;;;6.50;4.00;;;;;14.09;68.59;100729.88;4984124;28;45820;-62
2021/10/21 08:42:47;;;;;;;;;4.25;3.00;;;;;14.22;68.57;100736.28;5002309;28;45285;-62
2021/10/21 08:45:13;;;;;;;;;3.75;3.50;;;;;14.29;67.91;100740.34;5001478;28;45406;-63
2021/10/21 08:47:42;;;;;;;;;8.75;6.75;;;;;14.32;67.96;100734.97;5001874;28;45316;-62
2021/10/21 08:50:09;;;;;;;;;2.75;2.75;;;;;14.34;67.89;100742.75;5001395;28;45215;-62
2021/10/21 08:52:35;;;;;;;;;13.00;6.75;;;;;14.48;67.88;100737.81;5001993;28;45290;-62
2021/10/21 08:55:00;;;;;;;;;9.25;5.75;;;;;14.56;67.36;100745.31;5001504;28;45393;-63
2021/10/21 08:57:27;;;;;;;;;7.75;5.00;;;;;14.64;66.96;100748.47;5001596;28;46161;-63
2021/10/21 08:59:54;;;;;;;;;10.50;6.00;;;;;14.77;67.02;100746.97;5001429;28;45484;-62
2021/10/21 09:02:23;;;;;;;;;3.25;3.00;;;;;14.83;65.50;100741.50;5000315;28;45533;-62
2021/10/21 09:10:06;;;;;;;;;5.25;3.00;;;;;15.28;64.90;100742.06;4999682;28;45604;-62
2021/10/21 09:12:39;;;;;;;;;6.75;3.00;;;;;15.26;64.57;100734.28;5001632;28;45337;-62
2021/10/21 09:15:10;;;;;;;;;1.00;1.00;;;;;15.18;63.15;100737.22;5001255;28;45378;-63
2021/10/21 09:17:36;;;;;;;;;3.50;3.00;;;;;14.98;64.03;100742.53;5001156;28;46413;-63
2021/10/21 09:20:35;;;;;;;;;5.00;4.00;;;;;14.86;63.94;100740.50;5001129;28;45362;-62
2021/10/21 09:23:05;;;;;;;;;5.25;3.00;;;;;15.00;64.08;100742.47;5000864;28;46315;-62
2021/10/21 09:25:31;;;;;;;;;7.25;6.00;;;;;15.17;64.21;100756.47;4999062;28;45542;-64
2021/10/21 09:27:58;;;;;;;;;2.75;2.00;;;;;15.33;62.56;100753.16;5001388;28;46233;-62
2021/10/21 09:30:33;;;;;;;;;4.00;2.75;;;;;15.40;62.22;100742.31;5000997;28;45848;-61
2021/10/21 09:33:06;;;;;;;;;6.50;2.00;;;;;15.61;61.87;100744.84;5001325;28;45316;-62
2021/10/21 09:35:35;;;;;;;;;5.50;4.00;;;;;15.82;61.74;100738.59;5000941;28;45531;-63
2021/10/21 09:38:00;;;;;;;;;2.50;2.00;;;;;16.04;60.51;100754.97;5001275;28;47127;-63
2021/10/21 09:40:32;;;;;;;;;2.00;2.00;;;;;16.10;59.84;100746.78;5000976;28;45409;-63
2021/10/21 09:43:00;;;;;;;;;2.25;2.00;;;;;16.45;58.29;100752.00;5001459;28;45468;-63
2021/10/21 09:45:34;;;;;;;;;2.00;2.00;;;;;16.53;59.32;100749.84;5000658;28;45495;-63
2021/10/21 09:48:02;;;;;;;;;3.50;1.00;;;;;16.32;57.58;100753.56;5001004;28;45760;-63
2021/10/21 09:50:37;;;;;;;;;1.50;1.00;;;;;16.22;58.07;100745.34;4982831;28;45434;-63
2021/10/21 09:53:13;;;;;;;;;3.00;2.00;;;;;16.29;59.05;100756.34;5000850;28;45275;-63
2021/10/21 09:55:41;;;;;;;;;3.25;2.00;;;;;16.32;58.22;100749.16;4983281;28;45247;-63
2021/10/21 09:58:09;;;;;;;;;1.25;1.25;;;;;16.27;57.68;100752.94;5000610;28;46348;-63
2021/10/21 10:00:36;;;;;;;;;1.25;1.00;;;;;16.22;58.10;100757.56;4984090;28;45567;-63
2021/10/21 10:03:13;;;;;;;;;4.00;1.50;;;;;16.68;56.95;100751.69;4999861;28;45307;-63
2021/10/21 10:05:40;;;;;;;;;3.25;2.00;;;;;16.72;56.49;100762.88;5000376;28;45410;-63
2021/10/21 10:08:09;;;;;;;;;4.00;3.00;;;;;16.93;56.25;100745.97;4999902;28;46045;-63
2021/10/21 10:10:42;;;;;;;;;7.25;2.75;;;;;17.32;54.94;100750.84;4997748;28;45802;-63
2021/10/21 10:13:09;;;;;;;;;1.75;1.75;;;;;17.26;55.29;100743.31;4998525;28;45564;-63
2021/10/21 10:15:35;;;;;;;;;2.00;0.50;;;;;17.14;55.73;100749.22;4999511;28;45294;-63
2021/10/21 10:18:05;;;;;;;;;7.75;2.00;;;;;17.10;55.82;100752.94;4999443;28;46986;-63
2021/10/21 10:20:31;;;;;;;;;3.75;3.75;;;;;17.09;55.74;100750.41;4999654;28;45223;-63
2021/10/21 10:23:00;;;;;;;;;1.75;1.75;;;;;17.09;55.73;100746.00;4999504;28;45338;-63
2021/10/21 10:25:27;;;;;;;;;2.00;1.00;;;;;17.09;55.75;100750.41;4999778;28;45444;-63
2021/10/21 10:28:04;;;;;;;;;4.50;2.50;;;;;17.00;56.54;100751.75;4985877;28;46199;-63
2021/10/21 10:30:56;;;;;;;;;7.25;3.00;;;;;17.08;56.34;100757.44;4999774;28;45704;-63
2021/10/21 10:33:34;;;;;;;;;5.50;4.00;;;;;17.22;56.51;100759.31;5000035;28;45399;-64
2021/10/21 10:36:21;;;;;;;;;4.00;2.00;;;;;17.31;56.19;100745.69;4993958;28;45547;-64
2021/10/21 10:38:47;;;;;;;;;2.00;1.00;;;;;17.10;55.91;100747.72;5001473;28;46346;-62
2021/10/21 10:41:13;;;;;;;;;2.50;1.50;;;;;16.94;56.45;100734.56;5000358;28;45322;-64
2021/10/21 10:43:41;;;;;;;;;5.50;1.75;;;;;16.76;57.55;100753.06;4999698;28;45288;-64
2021/10/21 10:46:11;;;;;;;;;3.00;2.75;;;;;16.55;57.72;100749.75;4999533;28;45491;-63
2021/10/21 10:48:55;;;;;;;;;2.50;2.50;;;;;16.50;58.05;100747.38;4999658;28;47386;-64
2021/10/21 10:51:21;;;;;;;;;2.75;1.25;;;;;16.49;58.54;100755.31;4999442;28;45315;-64
2021/10/21 10:53:49;;;;;;;;;5.75;5.25;;;;;16.48;59.10;100758.88;5000044;28;46327;-63
2021/10/21 10:56:39;;;;;;;;;5.25;2.75;;;;;16.37;60.71;100764.66;4999572;28;45468;-64
2021/10/21 10:59:19;;;;;;;;;1.50;1.50;;;;;16.25;62.16;100762.69;4999755;28;45439;-63
2021/10/21 11:01:45;;;;;;;;;4.00;2.00;;;;;16.22;62.89;100782.03;4998223;28;45394;-63
2021/10/21 11:04:10;;;;;;;;;4.25;1.25;;;;;16.08;64.72;100776.63;4998785;28;45338;-63
2021/10/21 11:06:36;;;;;;;;;2.50;1.75;;;;;15.94;65.92;100773.81;4999448;28;45274;-64
2021/10/21 11:09:06;;;;;;;;;3.50;1.75;;;;;15.73;66.91;100762.63;4999406;28;46263;-64
2021/10/21 11:12:00;;;;;;;;;4.75;1.50;;;;;15.66;67.63;100767.31;4999557;28;45690;-64
2021/10/21 11:14:38;;;;;;;;;3.25;1.50;;;;;15.67;68.28;100758.53;4995426;28;45508;-63
2021/10/21 11:17:04;;;;;;;;;3.00;3.00;;;;;15.79;68.43;100757.91;4999175;28;45316;-63
2021/10/21 11:19:36;;;;;;;;;4.25;2.25;;;;;15.89;67.77;100747.84;4998703;28;45405;-63
2021/10/21 11:22:01;;;;;;;;;6.75;3.00;;;;;15.99;67.86;100756.09;4998997;28;45700;-63
2021/10/21 11:24:48;;;;;;;;;3.75;2.00;;;;;16.01;68.56;100759.47;4998544;28;45392;-63
2021/10/21 11:27:18;;;;;;;;;6.00;1.75;;;;;15.98;69.10;100747.38;4999224;28;45299;-63
2021/10/21 11:29:47;;;;;;;;;3.50;2.00;;;;;15.90;71.73;100748.69;4999072;28;46192;-63
2021/10/21 11:32:13;;;;;;;;;4.00;3.00;;;;;15.70;73.33;100749.66;4998833;28;45282;-63